Latest Weather Observations for Little Bay

IDN60901

Issued at 8:45 am EST Saturday 2 August 2014 (issued every 10 minutes, with the page automatically refreshed every 10 minutes)

About weather observations | Map of Sydney area stations | Latest observations for Sydney area | Other Formats
Station Details ID: 066051 Name: LITTLE BAY (THE COAST GOLF CLUB) Lat: -33.98 Lon: 151.25 Height: 22.0 m
Data from the previous 72 hours. | See also: Recent months for locations in New South Wales
Date/Time
EST
Tmp

°C
App
Tmp
°C
Dew
Point
°C
Rel
Hum
%
Delta-T

°C
Wind Press
QNH
hPa
Press
MSL
hPa
Rain
since
9 am
mm
Dir
 
Spd
km/h
Gust
km/h
Spd
kts
Gust
kts
02/08:30am - - - - - WSW 20 32 11 17 - - -
02/08:00am - - - - - WSW 19 28 10 15 - - -
02/07:30am - - - - - WSW 22 30 12 16 - - -
02/07:00am - - - - - W 17 28 9 15 - - -
02/06:30am - - - - - WSW 22 35 12 19 - - -
02/06:00am - - - - - WSW 20 32 11 17 - - -
02/05:30am - - - - - WSW 17 32 9 17 - - -
02/05:00am - - - - - WSW 24 32 13 17 - - -
02/04:30am - - - - - W 17 28 9 15 - - -
02/04:00am - - - - - W 17 28 9 15 - - -
02/03:30am - - - - - W 20 30 11 16 - - -
02/03:00am - - - - - W 17 28 9 15 - - -
02/02:30am - - - - - W 15 26 8 14 - - -
02/02:00am - - - - - W 11 24 6 13 - - -
02/01:30am - - - - - W 13 26 7 14 - - -
02/01:00am - - - - - W 19 32 10 17 - - -
02/12:30am - - - - - W 15 28 8 15 - - -
02/12:00am - - - - - W 24 39 13 21 - - -
 
Date/Time
EST
Tmp

°C
App
Tmp
°C
Dew
Point
°C
Rel
Hum
%
Delta-T

°C
Wind Press
QNH
hPa
Press
MSL
hPa
Rain
since
9 am
mm
Dir
 
Spd
km/h
Gust
km/h
Spd
kts
Gust
kts
01/11:30pm - - - - - W 15 24 8 13 - - -
01/11:00pm - - - - - W 11 17 6 9 - - -
01/10:30pm - - - - - W 9 17 5 9 - - -
01/10:00pm - - - - - W 13 24 7 13 - - -
01/09:30pm - - - - - W 13 20 7 11 - - -
01/09:00pm - - - - - WNW 13 22 7 12 - - -
01/08:30pm - - - - - W 9 17 5 9 - - -
01/08:00pm - - - - - W 20 43 11 23 - - -
01/07:30pm - - - - - W 24 39 13 21 - - -
01/07:00pm - - - - - W 24 46 13 25 - - -
01/06:30pm - - - - - WNW 30 52 16 28 - - -
01/06:15pm - - - - - WNW 28 52 15 28 - - -
01/06:00pm - - - - - WNW 24 41 13 22 - - -
01/05:30pm - - - - - WNW 20 35 11 19 - - -
01/05:00pm - - - - - W 24 33 13 18 - - -
01/04:30pm - - - - - W 24 37 13 20 - - -
01/04:04pm - - - - - W 28 46 15 25 - - -
01/04:00pm - - - - - W 24 37 13 20 - - -
01/03:30pm - - - - - W 24 41 13 22 - - -
01/03:00pm - - - - - W 24 37 13 20 - - -
01/02:30pm - - - - - W 22 35 12 19 - - -
01/02:00pm - - - - - W 22 37 12 20 - - -
01/01:30pm - - - - - W 20 32 11 17 - - -
01/01:00pm - - - - - WSW 26 48 14 26 - - -
01/12:53pm - - - - - WSW 28 48 15 26 - - -
01/12:30pm - - - - - W 22 33 12 18 - - -
01/12:00pm - - - - - WSW 24 39 13 21 - - -
01/11:30am - - - - - WSW 17 28 9 15 - - -
01/11:00am - - - - - SW 17 24 9 13 - - -
01/10:30am - - - - - WNW 15 24 8 13 - - -
01/10:00am - - - - - W 11 19 6 10 - - -
01/09:30am - - - - - W 13 20 7 11 - - -
01/09:00am - - - - - W 9 13 5 7 - - -
01/08:30am - - - - - W 9 15 5 8 - - -
01/08:00am - - - - - WSW 9 17 5 9 - - -
01/07:30am - - - - - W 7 17 4 9 - - -
01/07:00am - - - - - N 4 4 2 2 - - -
01/06:30am - - - - - NW 7 15 4 8 - - -
01/06:00am - - - - - N 4 7 2 4 - - -
01/05:30am - - - - - W 7 15 4 8 - - -
01/05:00am - - - - - N 13 20 7 11 - - -
01/04:30am - - - - - N 11 15 6 8 - - -
01/04:00am - - - - - N 13 19 7 10 - - -
01/03:30am - - - - - N 13 19 7 10 - - -
01/03:00am - - - - - N 15 24 8 13 - - -
01/02:30am - - - - - N 11 19 6 10 - - -
01/02:00am - - - - - N 9 13 5 7 - - -
01/01:30am - - - - - N 11 15 6 8 - - -
01/01:00am - - - - - N 17 22 9 12 - - -
01/12:30am - - - - - N 11 17 6 9 - - -
01/12:00am - - - - - N 9 15 5 8 - - -
 
Date/Time
EST
Tmp

°C
App
Tmp
°C
Dew
Point
°C
Rel
Hum
%
Delta-T

°C
Wind Press
QNH
hPa
Press
MSL
hPa
Rain
since
9 am
mm
Dir
 
Spd
km/h
Gust
km/h
Spd
kts
Gust
kts
31/11:30pm - - - - - N 7 13 4 7 - - -
31/11:00pm - - - - - N 15 22 8 12 - - -
31/10:30pm - - - - - N 19 28 10 15 - - -
31/10:00pm - - - - - N 20 37 11 20 - - -
31/09:30pm - - - - - N 20 33 11 18 - - -
31/09:00pm - - - - - NNW 20 32 11 17 - - -
31/08:30pm - - - - - NNW 22 37 12 20 - - -
31/08:00pm - - - - - NNW 24 39 13 21 - - -
31/07:30pm - - - - - NNW 24 43 13 23 - - -
31/07:00pm - - - - - NNW 22 33 12 18 - - -
31/06:30pm - - - - - NNW 20 32 11 17 - - -
31/06:00pm - - - - - NNW 17 33 9 18 - - -
31/05:30pm - - - - - NNW 22 37 12 20 - - -
31/05:00pm - - - - - NNW 26 43 14 23 - - -
31/04:39pm - - - - - NNW 30 48 16 26 - - -
31/04:30pm - - - - - NNW 26 44 14 24 - - -
31/04:00pm - - - - - NNW 30 43 16 23 - - -
31/03:30pm - - - - - NNW 26 44 14 24 - - -
31/03:00pm - - - - - NNW 26 43 14 23 - - -
31/02:30pm - - - - - NNW 22 46 12 25 - - -
31/02:00pm - - - - - NNW 22 41 12 22 - - -
31/01:30pm - - - - - NNW 26 41 14 22 - - -
31/01:00pm - - - - - NNW 26 39 14 21 - - -
31/12:30pm - - - - - NNW 20 33 11 18 - - -
31/12:00pm - - - - - NNW 20 35 11 19 - - -
31/11:30am - - - - - NNW 20 33 11 18 - - -
31/11:00am - - - - - NNW 24 37 13 20 - - -
31/10:30am - - - - - NNW 20 30 11 16 - - -
31/10:00am - - - - - N 19 30 10 16 - - -
31/09:30am - - - - - NNW 19 28 10 15 - - -
31/09:00am - - - - - NNW 17 30 9 16 - - -
31/08:30am - - - - - N 9 13 5 7 - - -
31/08:00am - - - - - N 7 13 4 7 - - -
31/07:30am - - - - - N 9 13 5 7 - - -
31/07:00am - - - - - N 9 13 5 7 - - -
31/06:30am - - - - - N 9 13 5 7 - - -
31/06:00am - - - - - N 7 11 4 6 - - -
31/05:30am - - - - - N 6 7 3 4 - - -
31/05:00am - - - - - N 7 13 4 7 - - -
31/04:30am - - - - - N 11 20 6 11 - - -
31/04:00am - - - - - N 13 19 7 10 - - -
31/03:30am - - - - - N 9 15 5 8 - - -
31/03:00am - - - - - N 11 17 6 9 - - -
31/02:30am - - - - - N 13 20 7 11 - - -
31/02:00am - - - - - NNW 15 22 8 12 - - -
31/01:30am - - - - - N 15 22 8 12 - - -
31/01:00am - - - - - NNW 15 26 8 14 - - -
31/12:30am - - - - - NNW 13 24 7 13 - - -
31/12:00am - - - - - NNW 17 26 9 14 - - -
 
Date/Time
EST
Tmp

°C
App
Tmp
°C
Dew
Point
°C
Rel
Hum
%
Delta-T

°C
Wind Press
QNH
hPa
Press
MSL
hPa
Rain
since
9 am
mm
Dir
 
Spd
km/h
Gust
km/h
Spd
kts
Gust
kts
30/11:30pm - - - - - N 11 15 6 8 - - -
30/11:00pm - - - - - NNW 11 20 6 11 - - -
30/10:30pm - - - - - NNW 9 15 5 8 - - -
30/10:00pm - - - - - NNW 9 13 5 7 - - -
30/09:30pm - - - - - NNW 9 13 5 7 - - -
30/09:00pm - - - - - NNW 9 13 5 7 - - -
30/08:30pm - - - - - NNW 7 11 4 6 - - -
30/08:00pm - - - - - WNW 4 7 2 4 - - -
30/07:30pm - - - - - W 6 7 3 4 - - -
30/07:00pm - - - - - WSW 6 9 3 5 - - -
30/06:30pm - - - - - WNW 11 17 6 9 - - -
30/06:00pm - - - - - NW 11 19 6 10 - - -
30/05:30pm - - - - - WNW 13 24 7 13 - - -
30/05:00pm - - - - - WNW 11 20 6 11 - - -
30/04:30pm - - - - - WNW 11 24 6 13 - - -
30/04:00pm - - - - - W 15 22 8 12 - - -
30/03:30pm - - - - - W 17 26 9 14 - - -
30/03:00pm - - - - - WNW 17 26 9 14 - - -
30/02:30pm - - - - - WNW 15 28 8 15 - - -
30/02:00pm - - - - - WSW 7 13 4 7 - - -
30/01:30pm - - - - - W 11 17 6 9 - - -
30/01:00pm - - - - - W 13 20 7 11 - - -
30/12:30pm - - - - - W 13 22 7 12 - - -
30/12:00pm - - - - - W 13 20 7 11 - - -
30/11:30am - - - - - W 11 19 6 10 - - -
30/11:00am - - - - - SSE 6 17 3 9 - - -
30/10:30am - - - - - ESE 6 7 3 4 - - -
30/10:00am - - - - - SSE 4 9 2 5 - - -
30/09:30am - - - - - E 7 11 4 6 - - -
30/09:00am - - - - - SE 7 13 4 7 - - -

Latest Capital City Observations: Canberra | Sydney | Melbourne | Brisbane | Adelaide | Perth | Hobart | Darwin

Other Formats:

Comma delimited format used in spreadsheet applications
http://www.bom.gov.au/fwo/IDN60901/IDN60901.94780.axf

JavaScript Object Notation format (JSON) in row-major order
http://www.bom.gov.au/fwo/IDN60901/IDN60901.94780.json